TimeEDT,TemperatureF,Dew PointF,Humidity,Sea Level PressureIn,VisibilityMPH,Wind Direction,Wind SpeedMPH,Gust SpeedMPH,PrecipitationIn,Events,Conditions,WindDirDegrees,DateUTC
12:53 AM,82.9,77.0,82,30.14,10.0,East,11.5,-,N/A,,Partly Cloudy,80,2012-10-04 04:53:00
1:53 AM,82.0,75.9,82,30.13,10.0,ESE,9.2,-,N/A,,Partly Cloudy,110,2012-10-04 05:53:00
2:40 AM,82.4,77.0,84,30.12,10.0,ESE,8.1,-,N/A,Thunderstorm,Thunderstorm,110,2012-10-04 06:40:00
2:53 AM,82.0,77.0,85,30.11,10.0,East,10.4,-,N/A,Thunderstorm,Thunderstorm,100,2012-10-04 06:53:00
3:02 AM,82.4,77.0,84,30.11,10.0,ESE,9.2,-,N/A,,Scattered Clouds,110,2012-10-04 07:02:00
3:53 AM,82.0,77.0,85,30.10,9.0,East,15.0,20.7,0.00,,Mostly Cloudy,80,2012-10-04 07:53:00
4:01 AM,80.6,75.2,84,30.09,6.0,ENE,8.1,20.7,0.03,Rain,Light Rain,70,2012-10-04 08:01:00
4:53 AM,82.0,77.0,85,30.10,10.0,East,8.1,-,0.03,,Scattered Clouds,80,2012-10-04 08:53:00
5:53 AM,82.0,77.0,85,30.11,10.0,ESE,9.2,-,N/A,,Scattered Clouds,110,2012-10-04 09:53:00
6:53 AM,81.0,77.0,88,30.12,10.0,ESE,9.2,-,N/A,,Scattered Clouds,110,2012-10-04 10:53:00
7:53 AM,82.9,77.0,82,30.11,10.0,East,11.5,-,N/A,,Scattered Clouds,100,2012-10-04 11:53:00
8:53 AM,84.9,77.0,77,30.13,10.0,East,11.5,-,N/A,,Scattered Clouds,100,2012-10-04 12:53:00
9:53 AM,86.0,77.0,74,30.14,10.0,ESE,10.4,-,N/A,,Partly Cloudy,110,2012-10-04 13:53:00
10:53 AM,86.0,77.0,74,30.14,10.0,ESE,11.5,-,N/A,,Partly Cloudy,110,2012-10-04 14:53:00
11:53 AM,87.1,77.0,72,30.15,10.0,ESE,11.5,-,N/A,,Scattered Clouds,110,2012-10-04 15:53:00
12:53 PM,87.1,77.0,72,30.13,10.0,SE,9.2,-,N/A,,Partly Cloudy,130,2012-10-04 16:53:00
1:53 PM,87.1,77.0,72,30.12,10.0,East,10.4,-,N/A,,Scattered Clouds,90,2012-10-04 17:53:00
2:53 PM,87.1,75.9,69,30.09,10.0,ESE,10.4,-,N/A,,Scattered Clouds,110,2012-10-04 18:53:00
3:53 PM,87.1,75.9,69,30.07,10.0,ESE,10.4,-,N/A,,Partly Cloudy,120,2012-10-04 19:53:00
4:53 PM,86.0,75.9,72,30.06,10.0,ESE,8.1,-,N/A,,Partly Cloudy,110,2012-10-04 20:53:00
5:53 PM,84.0,75.9,76,30.06,10.0,East,10.4,-,N/A,,Partly Cloudy,90,2012-10-04 21:53:00
6:53 PM,84.0,75.0,74,30.07,10.0,East,9.2,-,N/A,,Partly Cloudy,90,2012-10-04 22:53:00
7:53 PM,84.0,75.9,76,30.09,10.0,East,5.8,-,N/A,,Partly Cloudy,90,2012-10-04 23:53:00
8:53 PM,84.0,75.9,76,30.10,10.0,ENE,9.2,-,N/A,,Partly Cloudy,70,2012-10-05 00:53:00
9:53 PM,84.0,75.9,76,30.12,10.0,ENE,8.1,-,N/A,,Scattered Clouds,60,2012-10-05 01:53:00
10:53 PM,82.9,75.9,79,30.12,10.0,ENE,9.2,-,N/A,,Scattered Clouds,70,2012-10-05 02:53:00
11:53 PM,82.9,75.0,77,30.09,10.0,ENE,9.2,-,N/A,,Partly Cloudy,70,2012-10-05 03:53:00